sensor_id;sensor_type;location;lat;lon;timestamp;P1;durP1;ratioP1;P2;durP2;ratioP2
65238;SDS011;51827;51.186;6.926;2024-02-26T00:00:05;2.20;;;0.90;;
65238;SDS011;51827;51.186;6.926;2024-02-26T00:01:06;1.55;;;0.93;;
65238;SDS011;51827;51.186;6.926;2024-02-26T00:02:06;1.00;;;0.77;;
65238;SDS011;51827;51.186;6.926;2024-02-26T00:03:06;2.13;;;1.10;;
65238;SDS011;51827;51.186;6.926;2024-02-26T00:04:07;2.73;;;1.07;;
65238;SDS011;51827;51.186;6.926;2024-02-26T00:05:07;1.20;;;0.90;;
65238;SDS011;51827;51.186;6.926;2024-02-26T00:06:07;0.98;;;0.85;;
65238;SDS011;51827;51.186;6.926;2024-02-26T00:07:08;1.00;;;0.80;;
65238;SDS011;51827;51.186;6.926;2024-02-26T00:08:08;1.17;;;0.80;;
65238;SDS011;51827;51.186;6.926;2024-02-26T00:09:08;1.17;;;0.80;;
65238;SDS011;51827;51.186;6.926;2024-02-26T00:10:09;1.60;;;1.00;;
65238;SDS011;51827;51.186;6.926;2024-02-26T00:11:09;1.20;;;0.70;;
65238;SDS011;51827;51.186;6.926;2024-02-26T00:12:10;1.53;;;0.90;;
65238;SDS011;51827;51.186;6.926;2024-02-26T00:13:10;1.40;;;1.00;;
65238;SDS011;51827;51.186;6.926;2024-02-26T00:14:10;1.33;;;0.93;;
65238;SDS011;51827;51.186;6.926;2024-02-26T00:15:10;1.33;;;0.80;;
65238;SDS011;51827;51.186;6.926;2024-02-26T00:16:11;1.85;;;0.90;;
65238;SDS011;51827;51.186;6.926;2024-02-26T00:17:12;1.57;;;1.00;;
65238;SDS011;51827;51.186;6.926;2024-02-26T00:18:13;1.27;;;0.90;;
65238;SDS011;51827;51.186;6.926;2024-02-26T00:19:13;2.17;;;1.00;;
65238;SDS011;51827;51.186;6.926;2024-02-26T00:20:13;1.60;;;0.90;;
65238;SDS011;51827;51.186;6.926;2024-02-26T00:21:14;1.10;;;0.80;;
65238;SDS011;51827;51.186;6.926;2024-02-26T00:22:14;1.27;;;0.80;;
65238;SDS011;51827;51.186;6.926;2024-02-26T00:23:15;2.07;;;1.00;;
65238;SDS011;51827;51.186;6.926;2024-02-26T00:24:15;1.38;;;1.00;;
65238;SDS011;51827;51.186;6.926;2024-02-26T00:25:16;1.30;;;0.80;;
65238;SDS011;51827;51.186;6.926;2024-02-26T00:26:16;1.73;;;1.10;;
65238;SDS011;51827;51.186;6.926;2024-02-26T00:27:16;1.27;;;0.90;;
65238;SDS011;51827;51.186;6.926;2024-02-26T00:28:17;1.30;;;1.00;;
65238;SDS011;51827;51.186;6.926;2024-02-26T00:29:17;1.17;;;0.90;;
65238;SDS011;51827;51.186;6.926;2024-02-26T00:30:17;1.30;;;0.90;;
65238;SDS011;51827;51.186;6.926;2024-02-26T00:31:17;2.57;;;1.00;;
65238;SDS011;51827;51.186;6.926;2024-02-26T00:32:18;1.17;;;0.90;;
65238;SDS011;51827;51.186;6.926;2024-02-26T00:33:18;1.53;;;0.90;;
65238;SDS011;51827;51.186;6.926;2024-02-26T00:34:18;0.90;;;0.70;;
65238;SDS011;51827;51.186;6.926;2024-02-26T00:35:18;1.73;;;0.90;;
65238;SDS011;51827;51.186;6.926;2024-02-26T00:36:19;1.80;;;0.90;;
65238;SDS011;51827;51.186;6.926;2024-02-26T00:37:19;1.30;;;0.90;;
65238;SDS011;51827;51.186;6.926;2024-02-26T00:38:19;1.37;;;1.00;;
65238;SDS011;51827;51.186;6.926;2024-02-26T00:39:19;1.67;;;0.97;;
65238;SDS011;51827;51.186;6.926;2024-02-26T00:40:20;1.17;;;0.90;;
65238;SDS011;51827;51.186;6.926;2024-02-26T00:41:20;1.20;;;1.00;;
65238;SDS011;51827;51.186;6.926;2024-02-26T00:42:20;2.22;;;1.00;;
65238;SDS011;51827;51.186;6.926;2024-02-26T00:43:21;0.80;;;0.80;;
65238;SDS011;51827;51.186;6.926;2024-02-26T00:44:21;1.73;;;1.00;;
65238;SDS011;51827;51.186;6.926;2024-02-26T00:45:21;1.07;;;0.90;;
65238;SDS011;51827;51.186;6.926;2024-02-26T00:46:22;0.80;;;0.70;;
65238;SDS011;51827;51.186;6.926;2024-02-26T00:47:22;1.77;;;0.90;;
65238;SDS011;51827;51.186;6.926;2024-02-26T00:48:22;1.20;;;0.90;;
65238;SDS011;51827;51.186;6.926;2024-02-26T00:49:22;1.87;;;1.00;;
65238;SDS011;51827;51.186;6.926;2024-02-26T00:50:23;1.30;;;0.90;;
65238;SDS011;51827;51.186;6.926;2024-02-26T00:51:23;1.53;;;0.90;;
65238;SDS011;51827;51.186;6.926;2024-02-26T00:52:23;1.90;;;0.97;;
65238;SDS011;51827;51.186;6.926;2024-02-26T00:53:23;0.70;;;0.70;;
65238;SDS011;51827;51.186;6.926;2024-02-26T00:54:24;1.00;;;0.80;;
65238;SDS011;51827;51.186;6.926;2024-02-26T00:55:24;1.43;;;0.80;;
65238;SDS011;51827;51.186;6.926;2024-02-26T00:56:24;1.43;;;1.00;;
65238;SDS011;51827;51.186;6.926;2024-02-26T00:57:24;1.43;;;0.90;;
65238;SDS011;51827;51.186;6.926;2024-02-26T00:58:25;1.15;;;0.80;;
65238;SDS011;51827;51.186;6.926;2024-02-26T00:59:26;1.25;;;0.90;;
65238;SDS011;51827;51.186;6.926;2024-02-26T01:00:26;3.03;;;1.23;;
65238;SDS011;51827;51.186;6.926;2024-02-26T01:01:26;1.80;;;0.90;;
65238;SDS011;51827;51.186;6.926;2024-02-26T01:02:26;1.40;;;1.00;;
65238;SDS011;51827;51.186;6.926;2024-02-26T01:03:27;1.53;;;0.90;;
65238;SDS011;51827;51.186;6.926;2024-02-26T01:04:27;2.10;;;0.90;;
65238;SDS011;51827;51.186;6.926;2024-02-26T01:05:27;0.97;;;0.80;;
65238;SDS011;51827;51.186;6.926;2024-02-26T01:06:27;1.40;;;0.80;;
65238;SDS011;51827;51.186;6.926;2024-02-26T01:07:28;1.00;;;0.90;;
65238;SDS011;51827;51.186;6.926;2024-02-26T01:08:28;1.00;;;0.90;;
65238;SDS011;51827;51.186;6.926;2024-02-26T01:09:28;1.13;;;0.80;;
65238;SDS011;51827;51.186;6.926;2024-02-26T01:10:28;1.43;;;0.90;;
65238;SDS011;51827;51.186;6.926;2024-02-26T01:11:29;0.80;;;0.80;;
65238;SDS011;51827;51.186;6.926;2024-02-26T01:12:29;0.93;;;0.77;;
65238;SDS011;51827;51.186;6.926;2024-02-26T01:13:29;0.85;;;0.80;;
65238;SDS011;51827;51.186;6.926;2024-02-26T01:14:29;1.57;;;0.90;;
65238;SDS011;51827;51.186;6.926;2024-02-26T01:15:30;0.77;;;0.70;;
65238;SDS011;51827;51.186;6.926;2024-02-26T01:16:30;1.20;;;0.90;;
65238;SDS011;51827;51.186;6.926;2024-02-26T01:17:30;1.17;;;0.90;;
65238;SDS011;51827;51.186;6.926;2024-02-26T01:18:30;1.00;;;0.90;;
65238;SDS011;51827;51.186;6.926;2024-02-26T01:19:31;1.20;;;0.90;;
65238;SDS011;51827;51.186;6.926;2024-02-26T01:20:31;1.13;;;0.90;;
65238;SDS011;51827;51.186;6.926;2024-02-26T01:21:31;0.97;;;0.83;;
65238;SDS011;51827;51.186;6.926;2024-02-26T01:22:31;1.37;;;0.90;;
65238;SDS011;51827;51.186;6.926;2024-02-26T01:23:32;0.93;;;0.80;;
65238;SDS011;51827;51.186;6.926;2024-02-26T01:24:32;0.80;;;0.80;;
65238;SDS011;51827;51.186;6.926;2024-02-26T01:25:32;0.87;;;0.80;;
65238;SDS011;51827;51.186;6.926;2024-02-26T01:26:32;1.07;;;0.93;;
65238;SDS011;51827;51.186;6.926;2024-02-26T01:27:33;1.13;;;0.90;;
65238;SDS011;51827;51.186;6.926;2024-02-26T01:28:33;1.40;;;0.90;;
65238;SDS011;51827;51.186;6.926;2024-02-26T01:29:33;1.50;;;0.90;;
65238;SDS011;51827;51.186;6.926;2024-02-26T01:30:33;1.93;;;0.80;;
65238;SDS011;51827;51.186;6.926;2024-02-26T01:31:34;0.97;;;0.87;;
65238;SDS011;51827;51.186;6.926;2024-02-26T01:32:34;1.40;;;0.90;;
65238;SDS011;51827;51.186;6.926;2024-02-26T01:33:34;0.90;;;0.80;;
65238;SDS011;51827;51.186;6.926;2024-02-26T01:34:34;1.40;;;0.93;;
65238;SDS011;51827;51.186;6.926;2024-02-26T01:35:35;1.27;;;0.80;;
65238;SDS011;51827;51.186;6.926;2024-02-26T01:36:35;1.53;;;0.90;;
65238;SDS011;51827;51.186;6.926;2024-02-26T01:37:35;1.90;;;1.00;;
65238;SDS011;51827;51.186;6.926;2024-02-26T01:38:36;1.00;;;0.88;;
65238;SDS011;51827;51.186;6.926;2024-02-26T01:39:36;1.20;;;0.80;;
65238;SDS011;51827;51.186;6.926;2024-02-26T01:40:36;1.30;;;0.80;;
65238;SDS011;51827;51.186;6.926;2024-02-26T01:41:37;0.83;;;0.80;;
65238;SDS011;51827;51.186;6.926;2024-02-26T01:42:40;1.00;;;0.90;;
65238;SDS011;51827;51.186;6.926;2024-02-26T01:43:40;1.60;;;0.90;;
65238;SDS011;51827;51.186;6.926;2024-02-26T01:44:40;0.90;;;0.80;;
65238;SDS011;51827;51.186;6.926;2024-02-26T01:45:41;0.70;;;0.70;;
65238;SDS011;51827;51.186;6.926;2024-02-26T01:46:41;1.17;;;0.90;;
65238;SDS011;51827;51.186;6.926;2024-02-26T01:47:41;1.05;;;0.80;;
65238;SDS011;51827;51.186;6.926;2024-02-26T01:48:42;0.90;;;0.70;;
65238;SDS011;51827;51.186;6.926;2024-02-26T01:49:43;2.30;;;0.80;;
65238;SDS011;51827;51.186;6.926;2024-02-26T01:50:44;0.93;;;0.83;;
65238;SDS011;51827;51.186;6.926;2024-02-26T01:51:44;0.88;;;0.80;;
65238;SDS011;51827;51.186;6.926;2024-02-26T01:52:45;0.70;;;0.70;;
65238;SDS011;51827;51.186;6.926;2024-02-26T01:53:47;1.27;;;0.90;;
65238;SDS011;51827;51.186;6.926;2024-02-26T01:54:47;1.23;;;0.80;;
65238;SDS011;51827;51.186;6.926;2024-02-26T01:55:48;0.80;;;0.73;;
65238;SDS011;51827;51.186;6.926;2024-02-26T01:56:48;0.83;;;0.80;;
65238;SDS011;51827;51.186;6.926;2024-02-26T01:57:49;1.48;;;1.08;;
65238;SDS011;51827;51.186;6.926;2024-02-26T01:58:50;1.00;;;0.75;;
65238;SDS011;51827;51.186;6.926;2024-02-26T01:59:50;1.03;;;0.90;;
65238;SDS011;51827;51.186;6.926;2024-02-26T02:00:50;1.40;;;0.80;;
65238;SDS011;51827;51.186;6.926;2024-02-26T02:01:52;1.00;;;0.82;;
65238;SDS011;51827;51.186;6.926;2024-02-26T02:02:55;1.75;;;1.02;;
65238;SDS011;51827;51.186;6.926;2024-02-26T02:03:56;0.90;;;0.80;;
65238;SDS011;51827;51.186;6.926;2024-02-26T02:04:58;1.10;;;0.80;;
65238;SDS011;51827;51.186;6.926;2024-02-26T02:05:58;1.45;;;0.90;;
65238;SDS011;51827;51.186;6.926;2024-02-26T02:06:59;1.00;;;0.80;;
65238;SDS011;51827;51.186;6.926;2024-02-26T02:08:00;0.82;;;0.82;;
65238;SDS011;51827;51.186;6.926;2024-02-26T02:09:00;1.13;;;0.70;;
65238;SDS011;51827;51.186;6.926;2024-02-26T02:10:01;1.23;;;0.80;;
65238;SDS011;51827;51.186;6.926;2024-02-26T02:11:01;1.20;;;0.80;;
65238;SDS011;51827;51.186;6.926;2024-02-26T02:12:01;1.10;;;0.80;;
65238;SDS011;51827;51.186;6.926;2024-02-26T02:13:02;1.40;;;0.93;;
65238;SDS011;51827;51.186;6.926;2024-02-26T02:14:02;0.70;;;0.67;;
65238;SDS011;51827;51.186;6.926;2024-02-26T02:15:02;1.03;;;0.90;;
65238;SDS011;51827;51.186;6.926;2024-02-26T02:16:03;1.80;;;0.77;;
65238;SDS011;51827;51.186;6.926;2024-02-26T02:17:04;1.40;;;0.90;;
65238;SDS011;51827;51.186;6.926;2024-02-26T02:18:05;0.93;;;0.87;;
65238;SDS011;51827;51.186;6.926;2024-02-26T02:20:09;1.08;;;0.82;;
65238;SDS011;51827;51.186;6.926;2024-02-26T02:21:14;0.82;;;0.80;;
65238;SDS011;51827;51.186;6.926;2024-02-26T02:22:15;1.77;;;0.80;;
65238;SDS011;51827;51.186;6.926;2024-02-26T02:23:15;1.43;;;1.10;;
65238;SDS011;51827;51.186;6.926;2024-02-26T02:24:15;1.40;;;0.93;;
65238;SDS011;51827;51.186;6.926;2024-02-26T02:25:15;1.03;;;0.93;;
65238;SDS011;51827;51.186;6.926;2024-02-26T02:26:16;1.20;;;1.03;;
65238;SDS011;51827;51.186;6.926;2024-02-26T02:27:16;1.02;;;0.80;;
65238;SDS011;51827;51.186;6.926;2024-02-26T02:28:17;0.80;;;0.80;;
65238;SDS011;51827;51.186;6.926;2024-02-26T02:29:18;1.30;;;0.70;;
65238;SDS011;51827;51.186;6.926;2024-02-26T02:30:18;1.02;;;0.80;;
65238;SDS011;51827;51.186;6.926;2024-02-26T02:31:20;1.25;;;0.90;;
65238;SDS011;51827;51.186;6.926;2024-02-26T02:32:20;1.07;;;0.80;;
65238;SDS011;51827;51.186;6.926;2024-02-26T02:33:21;1.55;;;0.85;;
65238;SDS011;51827;51.186;6.926;2024-02-26T02:34:22;0.88;;;0.70;;
65238;SDS011;51827;51.186;6.926;2024-02-26T02:35:23;1.00;;;0.63;;
65238;SDS011;51827;51.186;6.926;2024-02-26T02:36:23;1.27;;;0.70;;
65238;SDS011;51827;51.186;6.926;2024-02-26T02:37:23;0.83;;;0.80;;
65238;SDS011;51827;51.186;6.926;2024-02-26T02:38:23;1.40;;;0.90;;
65238;SDS011;51827;51.186;6.926;2024-02-26T02:39:24;1.03;;;0.80;;
65238;SDS011;51827;51.186;6.926;2024-02-26T02:40:24;0.70;;;0.70;;
65238;SDS011;51827;51.186;6.926;2024-02-26T02:41:24;0.93;;;0.80;;
65238;SDS011;51827;51.186;6.926;2024-02-26T02:42:24;1.10;;;0.90;;
65238;SDS011;51827;51.186;6.926;2024-02-26T02:43:25;1.15;;;0.88;;
65238;SDS011;51827;51.186;6.926;2024-02-26T02:44:25;1.20;;;0.90;;
65238;SDS011;51827;51.186;6.926;2024-02-26T02:45:26;1.07;;;0.77;;
65238;SDS011;51827;51.186;6.926;2024-02-26T02:46:26;1.03;;;0.80;;
65238;SDS011;51827;51.186;6.926;2024-02-26T02:47:26;1.23;;;0.93;;
65238;SDS011;51827;51.186;6.926;2024-02-26T02:48:26;0.87;;;0.80;;
65238;SDS011;51827;51.186;6.926;2024-02-26T02:49:27;0.80;;;0.70;;
65238;SDS011;51827;51.186;6.926;2024-02-26T02:50:27;1.03;;;0.73;;
65238;SDS011;51827;51.186;6.926;2024-02-26T02:51:27;0.90;;;0.70;;
65238;SDS011;51827;51.186;6.926;2024-02-26T02:52:27;0.83;;;0.80;;
65238;SDS011;51827;51.186;6.926;2024-02-26T02:53:28;0.70;;;0.67;;
65238;SDS011;51827;51.186;6.926;2024-02-26T02:54:28;1.00;;;0.70;;
65238;SDS011;51827;51.186;6.926;2024-02-26T02:55:28;1.60;;;0.80;;
65238;SDS011;51827;51.186;6.926;2024-02-26T02:56:28;1.77;;;0.90;;
65238;SDS011;51827;51.186;6.926;2024-02-26T02:57:29;0.85;;;0.80;;
65238;SDS011;51827;51.186;6.926;2024-02-26T02:59:30;0.97;;;0.80;;
65238;SDS011;51827;51.186;6.926;2024-02-26T03:00:31;0.97;;;0.87;;
65238;SDS011;51827;51.186;6.926;2024-02-26T03:01:31;0.60;;;0.60;;
65238;SDS011;51827;51.186;6.926;2024-02-26T03:02:31;0.97;;;0.87;;
65238;SDS011;51827;51.186;6.926;2024-02-26T03:03:31;0.97;;;0.80;;
65238;SDS011;51827;51.186;6.926;2024-02-26T03:04:32;1.80;;;0.90;;
65238;SDS011;51827;51.186;6.926;2024-02-26T03:05:32;0.97;;;0.70;;
65238;SDS011;51827;51.186;6.926;2024-02-26T03:06:32;0.70;;;0.70;;
65238;SDS011;51827;51.186;6.926;2024-02-26T03:07:32;1.47;;;0.90;;
65238;SDS011;51827;51.186;6.926;2024-02-26T03:08:33;1.00;;;0.70;;
65238;SDS011;51827;51.186;6.926;2024-02-26T03:09:33;1.40;;;1.00;;
65238;SDS011;51827;51.186;6.926;2024-02-26T03:10:33;1.60;;;0.90;;
65238;SDS011;51827;51.186;6.926;2024-02-26T03:11:33;0.93;;;0.80;;
65238;SDS011;51827;51.186;6.926;2024-02-26T03:12:34;1.10;;;0.80;;
65238;SDS011;51827;51.186;6.926;2024-02-26T03:13:34;1.20;;;0.70;;
65238;SDS011;51827;51.186;6.926;2024-02-26T03:14:35;1.43;;;0.80;;
65238;SDS011;51827;51.186;6.926;2024-02-26T03:15:35;6.97;;;0.90;;
65238;SDS011;51827;51.186;6.926;2024-02-26T03:16:35;0.97;;;0.80;;
65238;SDS011;51827;51.186;6.926;2024-02-26T03:17:35;1.00;;;0.80;;
65238;SDS011;51827;51.186;6.926;2024-02-26T03:18:38;0.97;;;0.70;;
65238;SDS011;51827;51.186;6.926;2024-02-26T03:19:38;1.80;;;0.80;;
65238;SDS011;51827;51.186;6.926;2024-02-26T03:20:39;1.00;;;0.80;;
65238;SDS011;51827;51.186;6.926;2024-02-26T03:21:39;0.83;;;0.70;;
65238;SDS011;51827;51.186;6.926;2024-02-26T03:22:39;0.80;;;0.77;;
65238;SDS011;51827;51.186;6.926;2024-02-26T03:23:40;0.75;;;0.73;;
65238;SDS011;51827;51.186;6.926;2024-02-26T03:24:40;1.33;;;0.70;;
65238;SDS011;51827;51.186;6.926;2024-02-26T03:25:44;1.30;;;0.90;;
65238;SDS011;51827;51.186;6.926;2024-02-26T03:26:45;0.93;;;0.70;;
65238;SDS011;51827;51.186;6.926;2024-02-26T03:27:45;0.80;;;0.80;;
65238;SDS011;51827;51.186;6.926;2024-02-26T03:28:45;1.53;;;0.90;;
65238;SDS011;51827;51.186;6.926;2024-02-26T03:29:45;1.07;;;0.77;;
65238;SDS011;51827;51.186;6.926;2024-02-26T03:30:45;0.70;;;0.70;;
65238;SDS011;51827;51.186;6.926;2024-02-26T03:31:46;1.20;;;0.80;;
65238;SDS011;51827;51.186;6.926;2024-02-26T03:32:46;1.07;;;0.80;;
65238;SDS011;51827;51.186;6.926;2024-02-26T03:33:46;1.53;;;0.80;;
65238;SDS011;51827;51.186;6.926;2024-02-26T03:34:46;0.77;;;0.70;;
65238;SDS011;51827;51.186;6.926;2024-02-26T03:35:47;0.70;;;0.70;;
65238;SDS011;51827;51.186;6.926;2024-02-26T03:36:47;0.70;;;0.70;;
65238;SDS011;51827;51.186;6.926;2024-02-26T03:37:47;1.17;;;0.83;;
65238;SDS011;51827;51.186;6.926;2024-02-26T03:38:48;2.73;;;0.80;;
65238;SDS011;51827;51.186;6.926;2024-02-26T03:39:48;0.68;;;0.68;;
65238;SDS011;51827;51.186;6.926;2024-02-26T03:40:48;0.87;;;0.80;;
65238;SDS011;51827;51.186;6.926;2024-02-26T03:41:48;1.20;;;0.73;;
65238;SDS011;51827;51.186;6.926;2024-02-26T03:42:49;1.90;;;0.77;;
65238;SDS011;51827;51.186;6.926;2024-02-26T03:43:49;0.97;;;0.80;;
65238;SDS011;51827;51.186;6.926;2024-02-26T03:44:49;1.17;;;0.90;;
65238;SDS011;51827;51.186;6.926;2024-02-26T03:45:49;1.27;;;0.90;;
65238;SDS011;51827;51.186;6.926;2024-02-26T03:46:49;0.73;;;0.73;;
65238;SDS011;51827;51.186;6.926;2024-02-26T03:47:50;0.83;;;0.83;;
65238;SDS011;51827;51.186;6.926;2024-02-26T03:48:50;1.43;;;0.87;;
65238;SDS011;51827;51.186;6.926;2024-02-26T03:49:50;1.10;;;1.00;;
65238;SDS011;51827;51.186;6.926;2024-02-26T03:50:50;2.63;;;0.80;;
65238;SDS011;51827;51.186;6.926;2024-02-26T03:51:51;1.20;;;0.90;;
65238;SDS011;51827;51.186;6.926;2024-02-26T03:52:51;1.47;;;0.90;;
65238;SDS011;51827;51.186;6.926;2024-02-26T03:53:51;0.70;;;0.70;;
65238;SDS011;51827;51.186;6.926;2024-02-26T03:54:51;0.70;;;0.70;;
65238;SDS011;51827;51.186;6.926;2024-02-26T03:55:52;1.30;;;0.80;;
65238;SDS011;51827;51.186;6.926;2024-02-26T03:56:52;1.30;;;0.97;;
65238;SDS011;51827;51.186;6.926;2024-02-26T03:57:52;1.07;;;0.90;;
65238;SDS011;51827;51.186;6.926;2024-02-26T03:58:52;1.07;;;0.70;;
65238;SDS011;51827;51.186;6.926;2024-02-26T03:59:53;0.95;;;0.80;;
65238;SDS011;51827;51.186;6.926;2024-02-26T04:00:53;1.00;;;0.90;;
65238;SDS011;51827;51.186;6.926;2024-02-26T04:01:54;0.93;;;0.80;;
65238;SDS011;51827;51.186;6.926;2024-02-26T04:02:54;1.10;;;0.70;;
65238;SDS011;51827;51.186;6.926;2024-02-26T04:03:54;0.67;;;0.67;;
65238;SDS011;51827;51.186;6.926;2024-02-26T04:04:54;1.00;;;0.80;;
65238;SDS011;51827;51.186;6.926;2024-02-26T04:05:55;1.50;;;0.70;;
65238;SDS011;51827;51.186;6.926;2024-02-26T04:06:55;0.90;;;0.70;;
65238;SDS011;51827;51.186;6.926;2024-02-26T04:07:55;0.77;;;0.70;;
65238;SDS011;51827;51.186;6.926;2024-02-26T04:08:55;0.90;;;0.80;;
65238;SDS011;51827;51.186;6.926;2024-02-26T04:09:56;0.97;;;0.73;;
65238;SDS011;51827;51.186;6.926;2024-02-26T04:10:56;0.70;;;0.70;;
65238;SDS011;51827;51.186;6.926;2024-02-26T04:11:56;0.80;;;0.80;;
65238;SDS011;51827;51.186;6.926;2024-02-26T04:12:56;0.97;;;0.70;;
65238;SDS011;51827;51.186;6.926;2024-02-26T04:13:57;1.90;;;0.83;;
65238;SDS011;51827;51.186;6.926;2024-02-26T04:14:57;1.30;;;0.90;;
65238;SDS011;51827;51.186;6.926;2024-02-26T04:15:57;1.03;;;0.80;;
65238;SDS011;51827;51.186;6.926;2024-02-26T04:16:57;0.60;;;0.60;;
65238;SDS011;51827;51.186;6.926;2024-02-26T04:17:58;1.83;;;0.90;;
65238;SDS011;51827;51.186;6.926;2024-02-26T04:18:58;1.13;;;0.73;;
65238;SDS011;51827;51.186;6.926;2024-02-26T04:19:58;1.33;;;0.70;;
65238;SDS011;51827;51.186;6.926;2024-02-26T04:20:58;1.20;;;0.90;;
65238;SDS011;51827;51.186;6.926;2024-02-26T04:21:59;0.80;;;0.70;;
65238;SDS011;51827;51.186;6.926;2024-02-26T04:22:59;1.20;;;0.80;;
65238;SDS011;51827;51.186;6.926;2024-02-26T04:23:59;0.80;;;0.70;;
65238;SDS011;51827;51.186;6.926;2024-02-26T04:25:00;0.83;;;0.80;;
65238;SDS011;51827;51.186;6.926;2024-02-26T04:26:00;0.60;;;0.60;;
65238;SDS011;51827;51.186;6.926;2024-02-26T04:27:00;1.08;;;0.80;;
65238;SDS011;51827;51.186;6.926;2024-02-26T04:28:01;1.30;;;0.90;;
65238;SDS011;51827;51.186;6.926;2024-02-26T04:29:01;1.00;;;0.60;;
65238;SDS011;51827;51.186;6.926;2024-02-26T04:30:01;2.07;;;0.80;;
65238;SDS011;51827;51.186;6.926;2024-02-26T04:31:01;0.70;;;0.70;;
65238;SDS011;51827;51.186;6.926;2024-02-26T04:32:02;0.80;;;0.70;;
65238;SDS011;51827;51.186;6.926;2024-02-26T04:33:02;1.25;;;0.77;;
65238;SDS011;51827;51.186;6.926;2024-02-26T04:34:03;1.27;;;0.87;;
65238;SDS011;51827;51.186;6.926;2024-02-26T04:35:03;1.37;;;0.80;;
65238;SDS011;51827;51.186;6.926;2024-02-26T04:36:04;2.05;;;0.90;;
65238;SDS011;51827;51.186;6.926;2024-02-26T04:37:04;1.13;;;0.77;;
65238;SDS011;51827;51.186;6.926;2024-02-26T04:38:04;0.70;;;0.70;;
65238;SDS011;51827;51.186;6.926;2024-02-26T04:39:05;0.67;;;0.67;;
65238;SDS011;51827;51.186;6.926;2024-02-26T04:40:05;1.13;;;0.77;;
65238;SDS011;51827;51.186;6.926;2024-02-26T04:41:06;1.15;;;0.73;;
65238;SDS011;51827;51.186;6.926;2024-02-26T04:42:06;0.60;;;0.60;;
65238;SDS011;51827;51.186;6.926;2024-02-26T04:43:06;1.00;;;0.85;;
65238;SDS011;51827;51.186;6.926;2024-02-26T04:44:07;0.90;;;0.80;;
65238;SDS011;51827;51.186;6.926;2024-02-26T04:45:07;1.20;;;0.90;;
65238;SDS011;51827;51.186;6.926;2024-02-26T04:46:08;0.82;;;0.70;;
65238;SDS011;51827;51.186;6.926;2024-02-26T04:47:09;1.63;;;0.80;;
65238;SDS011;51827;51.186;6.926;2024-02-26T04:48:09;0.70;;;0.70;;
65238;SDS011;51827;51.186;6.926;2024-02-26T04:49:09;1.07;;;0.90;;
65238;SDS011;51827;51.186;6.926;2024-02-26T04:50:09;1.50;;;0.80;;
65238;SDS011;51827;51.186;6.926;2024-02-26T04:51:09;2.77;;;0.80;;
65238;SDS011;51827;51.186;6.926;2024-02-26T04:52:10;1.43;;;0.90;;
65238;SDS011;51827;51.186;6.926;2024-02-26T04:53:10;2.10;;;0.90;;
65238;SDS011;51827;51.186;6.926;2024-02-26T04:54:10;1.20;;;0.80;;
65238;SDS011;51827;51.186;6.926;2024-02-26T04:55:10;1.87;;;0.90;;
65238;SDS011;51827;51.186;6.926;2024-02-26T04:56:11;1.60;;;0.90;;
65238;SDS011;51827;51.186;6.926;2024-02-26T04:57:11;3.03;;;0.80;;
65238;SDS011;51827;51.186;6.926;2024-02-26T04:58:11;1.00;;;0.80;;
65238;SDS011;51827;51.186;6.926;2024-02-26T04:59:11;1.40;;;0.77;;
65238;SDS011;51827;51.186;6.926;2024-02-26T05:00:12;0.87;;;0.80;;
65238;SDS011;51827;51.186;6.926;2024-02-26T05:01:13;0.95;;;0.70;;
65238;SDS011;51827;51.186;6.926;2024-02-26T05:02:13;1.33;;;0.80;;
65238;SDS011;51827;51.186;6.926;2024-02-26T05:03:13;2.35;;;0.95;;
65238;SDS011;51827;51.186;6.926;2024-02-26T05:04:14;1.10;;;0.80;;
65238;SDS011;51827;51.186;6.926;2024-02-26T05:05:14;0.90;;;0.73;;
65238;SDS011;51827;51.186;6.926;2024-02-26T05:06:14;1.67;;;0.80;;
65238;SDS011;51827;51.186;6.926;2024-02-26T05:07:14;1.40;;;0.87;;
65238;SDS011;51827;51.186;6.926;2024-02-26T05:08:15;1.23;;;0.70;;
65238;SDS011;51827;51.186;6.926;2024-02-26T05:09:15;1.43;;;0.93;;
65238;SDS011;51827;51.186;6.926;2024-02-26T05:10:15;1.30;;;0.83;;
65238;SDS011;51827;51.186;6.926;2024-02-26T05:11:15;2.77;;;0.93;;
65238;SDS011;51827;51.186;6.926;2024-02-26T05:12:16;4.30;;;1.00;;
65238;SDS011;51827;51.186;6.926;2024-02-26T05:13:16;2.20;;;0.70;;
65238;SDS011;51827;51.186;6.926;2024-02-26T05:14:16;5.73;;;0.87;;
65238;SDS011;51827;51.186;6.926;2024-02-26T05:15:16;2.10;;;0.90;;
65238;SDS011;51827;51.186;6.926;2024-02-26T05:16:17;0.83;;;0.70;;
65238;SDS011;51827;51.186;6.926;2024-02-26T05:17:17;2.43;;;0.80;;
65238;SDS011;51827;51.186;6.926;2024-02-26T05:18:17;2.90;;;1.30;;
65238;SDS011;51827;51.186;6.926;2024-02-26T05:19:18;5.57;;;2.15;;
65238;SDS011;51827;51.186;6.926;2024-02-26T05:20:18;8.63;;;2.50;;
65238;SDS011;51827;51.186;6.926;2024-02-26T05:21:18;3.40;;;1.70;;
65238;SDS011;51827;51.186;6.926;2024-02-26T05:22:19;5.73;;;1.90;;
65238;SDS011;51827;51.186;6.926;2024-02-26T05:23:19;6.37;;;1.97;;
65238;SDS011;51827;51.186;6.926;2024-02-26T05:24:19;7.13;;;2.47;;
65238;SDS011;51827;51.186;6.926;2024-02-26T05:25:19;8.17;;;1.87;;
65238;SDS011;51827;51.186;6.926;2024-02-26T05:26:23;12.80;;;2.37;;
65238;SDS011;51827;51.186;6.926;2024-02-26T05:27:23;5.72;;;1.70;;
65238;SDS011;51827;51.186;6.926;2024-02-26T05:28:24;5.13;;;1.70;;
65238;SDS011;51827;51.186;6.926;2024-02-26T05:29:24;4.17;;;1.67;;
65238;SDS011;51827;51.186;6.926;2024-02-26T05:30:24;5.97;;;1.70;;
65238;SDS011;51827;51.186;6.926;2024-02-26T05:31:25;3.70;;;1.47;;
65238;SDS011;51827;51.186;6.926;2024-02-26T05:33:26;4.70;;;1.57;;
65238;SDS011;51827;51.186;6.926;2024-02-26T05:34:26;9.33;;;1.57;;
65238;SDS011;51827;51.186;6.926;2024-02-26T05:35:26;5.40;;;1.87;;
65238;SDS011;51827;51.186;6.926;2024-02-26T05:36:27;2.83;;;1.70;;
65238;SDS011;51827;51.186;6.926;2024-02-26T05:37:27;4.23;;;1.30;;
65238;SDS011;51827;51.186;6.926;2024-02-26T05:38:27;5.83;;;1.20;;
65238;SDS011;51827;51.186;6.926;2024-02-26T05:39:27;6.97;;;1.73;;
65238;SDS011;51827;51.186;6.926;2024-02-26T05:40:27;9.50;;;1.83;;
65238;SDS011;51827;51.186;6.926;2024-02-26T05:41:28;2.50;;;1.37;;
65238;SDS011;51827;51.186;6.926;2024-02-26T05:42:28;10.10;;;1.67;;
65238;SDS011;51827;51.186;6.926;2024-02-26T05:43:28;5.70;;;1.50;;
65238;SDS011;51827;51.186;6.926;2024-02-26T05:44:28;4.83;;;1.20;;
65238;SDS011;51827;51.186;6.926;2024-02-26T05:45:29;3.73;;;1.20;;
65238;SDS011;51827;51.186;6.926;2024-02-26T05:46:29;6.83;;;1.50;;
65238;SDS011;51827;51.186;6.926;2024-02-26T05:47:29;6.60;;;1.23;;
65238;SDS011;51827;51.186;6.926;2024-02-26T05:48:29;4.30;;;1.30;;
65238;SDS011;51827;51.186;6.926;2024-02-26T05:49:30;10.20;;;1.37;;
65238;SDS011;51827;51.186;6.926;2024-02-26T05:50:30;4.20;;;1.23;;
65238;SDS011;51827;51.186;6.926;2024-02-26T05:51:30;6.57;;;1.27;;
65238;SDS011;51827;51.186;6.926;2024-02-26T05:52:30;1.60;;;1.13;;
65238;SDS011;51827;51.186;6.926;2024-02-26T05:53:31;2.43;;;1.00;;
65238;SDS011;51827;51.186;6.926;2024-02-26T05:54:31;5.90;;;0.90;;
65238;SDS011;51827;51.186;6.926;2024-02-26T05:55:31;5.65;;;1.50;;
65238;SDS011;51827;51.186;6.926;2024-02-26T05:56:32;6.13;;;1.10;;
65238;SDS011;51827;51.186;6.926;2024-02-26T05:57:35;3.03;;;1.50;;
65238;SDS011;51827;51.186;6.926;2024-02-26T05:58:36;4.18;;;1.30;;
65238;SDS011;51827;51.186;6.926;2024-02-26T05:59:36;5.60;;;1.50;;
65238;SDS011;51827;51.186;6.926;2024-02-26T06:00:36;3.23;;;1.40;;
65238;SDS011;51827;51.186;6.926;2024-02-26T06:01:36;3.00;;;1.20;;
65238;SDS011;51827;51.186;6.926;2024-02-26T06:02:37;3.60;;;1.17;;
65238;SDS011;51827;51.186;6.926;2024-02-26T06:03:37;2.90;;;1.27;;
65238;SDS011;51827;51.186;6.926;2024-02-26T06:04:37;8.93;;;1.50;;
65238;SDS011;51827;51.186;6.926;2024-02-26T06:05:37;5.47;;;1.00;;
65238;SDS011;51827;51.186;6.926;2024-02-26T06:06:38;3.93;;;1.20;;